createdAt,value
2018-05-06T00:01:28.057Z,75.34
2018-05-06T00:03:55.632Z,75.39
2018-05-06T00:06:23.163Z,75.61
2018-05-06T00:08:50.710Z,75.73
2018-05-06T00:11:18.715Z,75.80
2018-05-06T00:13:46.270Z,75.91
2018-05-06T00:16:13.820Z,75.98
2018-05-06T00:18:41.523Z,75.82
2018-05-06T00:21:09.059Z,75.82
2018-05-06T00:23:36.610Z,75.61
2018-05-06T00:26:04.342Z,75.52
2018-05-06T00:28:31.896Z,75.49
2018-05-06T00:30:59.434Z,75.46
2018-05-06T00:33:27.029Z,75.46
2018-05-06T00:35:54.584Z,75.35
2018-05-06T00:38:22.127Z,74.99
2018-05-06T00:40:49.839Z,74.88
2018-05-06T00:43:17.400Z,74.87
2018-05-06T00:45:44.936Z,74.83
2018-05-06T00:48:12.505Z,74.73
2018-05-06T00:50:40.051Z,74.91
2018-05-06T00:53:07.602Z,74.92
2018-05-06T00:55:35.279Z,74.99
2018-05-06T00:58:02.825Z,74.93
2018-05-06T01:00:30.372Z,75.24
2018-05-06T01:02:57.992Z,75.39
2018-05-06T01:05:25.535Z,75.36
2018-05-06T01:07:53.073Z,74.45
2018-05-06T01:10:20.794Z,74.72
2018-05-06T01:12:48.335Z,75.75
2018-05-06T01:15:15.881Z,76.04
2018-05-06T01:17:43.649Z,75.88
2018-05-06T01:20:11.183Z,75.88
2018-05-06T01:22:38.718Z,75.24
2018-05-06T01:25:06.301Z,75.54
2018-05-06T01:27:33.845Z,75.92
2018-05-06T01:30:01.397Z,76.30
2018-05-06T01:32:29.768Z,76.00
2018-05-06T01:34:57.303Z,76.17
2018-05-06T01:37:24.833Z,76.36
2018-05-06T01:39:52.535Z,76.42
2018-05-06T01:42:20.078Z,76.59
2018-05-06T01:44:47.620Z,76.51
2018-05-06T01:47:15.327Z,76.58
2018-05-06T01:49:42.871Z,76.56
2018-05-06T01:52:10.424Z,76.67
2018-05-06T01:54:38.316Z,76.85
2018-05-06T01:57:05.842Z,76.88
2018-05-06T01:59:33.383Z,76.71
2018-05-06T02:02:01.112Z,76.67
2018-05-06T02:04:28.646Z,76.46
2018-05-06T02:06:56.190Z,76.52
2018-05-06T02:09:24.086Z,76.54
2018-05-06T02:11:51.637Z,76.58
2018-05-06T02:14:19.175Z,76.80
2018-05-06T02:16:46.706Z,76.97
2018-05-06T02:19:14.244Z,77.07
2018-05-06T02:21:41.803Z,77.13
2018-05-06T02:24:09.350Z,77.04
2018-05-06T02:26:36.901Z,76.80
2018-05-06T02:29:05.537Z,76.79
2018-05-06T02:31:33.083Z,76.73
2018-05-06T02:34:00.652Z,76.77
2018-05-06T02:36:28.230Z,76.51
2018-05-06T02:38:55.768Z,76.48
2018-05-06T02:41:23.304Z,76.23
2018-05-06T02:43:51.018Z,76.29
2018-05-06T02:46:18.564Z,76.35
2018-05-06T02:48:46.124Z,76.21
2018-05-06T02:51:13.713Z,76.12
2018-05-06T02:53:41.257Z,76.08
2018-05-06T02:56:08.801Z,76.12
2018-05-06T02:58:36.372Z,75.91
2018-05-06T03:01:03.916Z,75.52
2018-05-06T03:03:31.454Z,75.34
2018-05-06T03:05:59.168Z,75.22
2018-05-06T03:08:26.696Z,75.20
2018-05-06T03:10:54.228Z,74.86
2018-05-06T03:13:21.812Z,74.75
2018-05-06T03:15:49.359Z,74.78
2018-05-06T03:18:16.904Z,74.85
2018-05-06T03:20:44.465Z,74.26
2018-05-06T03:23:12.007Z,74.24
2018-05-06T03:25:39.565Z,74.84
2018-05-06T03:28:07.124Z,74.75
2018-05-06T03:30:34.684Z,74.40
2018-05-06T03:33:02.233Z,74.23
2018-05-06T03:35:29.918Z,73.26
2018-05-06T03:37:57.457Z,72.33
2018-05-06T03:40:24.992Z,71.85
2018-05-06T03:42:52.584Z,70.12
2018-05-06T03:45:20.128Z,66.89
2018-05-06T03:47:47.679Z,64.75
2018-05-06T03:50:15.251Z,62.74
2018-05-06T03:52:42.789Z,61.78
2018-05-06T03:55:10.346Z,60.94
2018-05-06T03:57:49.861Z,60.59
2018-05-06T04:00:29.058Z,58.09
2018-05-06T04:02:56.606Z,54.47
2018-05-06T04:05:24.162Z,52.04
2018-05-06T04:07:51.711Z,49.01
2018-05-06T04:10:19.442Z,47.17
2018-05-06T04:12:47.030Z,45.57
2018-05-06T04:15:14.608Z,45.53
2018-05-06T04:17:42.343Z,44.79
2018-05-06T04:20:09.891Z,43.00
2018-05-06T04:22:37.425Z,41.88
2018-05-06T04:25:05.160Z,41.41
2018-05-06T04:27:32.704Z,40.30
2018-05-06T04:30:01.149Z,39.25
2018-05-06T04:32:28.733Z,37.88
2018-05-06T04:34:56.303Z,36.08
2018-05-06T04:37:23.846Z,35.47
2018-05-06T04:39:51.551Z,33.32
2018-05-06T04:42:19.086Z,32.91
2018-05-06T04:44:46.631Z,32.26
2018-05-06T04:47:14.204Z,31.52
2018-05-06T04:49:41.754Z,29.68
2018-05-06T04:52:09.290Z,29.95
2018-05-06T04:54:37.188Z,30.99
2018-05-06T04:57:05.016Z,32.04
2018-05-06T04:59:32.551Z,30.85
2018-05-06T05:02:00.160Z,29.55
2018-05-06T05:04:27.699Z,31.91
2018-05-06T05:06:55.245Z,34.02
2018-05-06T05:09:23.300Z,36.74
2018-05-06T05:11:50.857Z,37.66
2018-05-06T05:14:18.402Z,37.38
2018-05-06T05:16:45.948Z,35.29
2018-05-06T05:19:13.503Z,34.42
2018-05-06T05:21:41.070Z,35.11
2018-05-06T05:24:08.624Z,33.49
2018-05-06T05:26:36.161Z,35.19
2018-05-06T05:29:03.753Z,37.67
2018-05-06T05:31:31.291Z,39.53
2018-05-06T05:33:58.837Z,41.76
2018-05-06T05:36:26.567Z,41.45
2018-05-06T05:38:54.115Z,42.57
2018-05-06T05:41:21.667Z,41.79
2018-05-06T05:43:49.285Z,41.27
2018-05-06T05:46:16.840Z,42.75
2018-05-06T05:48:44.395Z,43.39
2018-05-06T05:51:12.409Z,44.88
2018-05-06T05:53:39.956Z,46.00
2018-05-06T05:56:07.501Z,46.77
2018-05-06T05:58:35.079Z,46.96
2018-05-06T06:01:02.610Z,49.41
2018-05-06T06:03:30.172Z,49.27
2018-05-06T06:05:57.746Z,49.20
2018-05-06T06:08:25.303Z,46.88
2018-05-06T06:10:52.890Z,43.87
2018-05-06T06:13:20.563Z,44.33
2018-05-06T06:15:48.110Z,43.29
2018-05-06T06:18:15.672Z,42.39
2018-05-06T06:20:43.253Z,43.63
2018-05-06T06:23:10.810Z,45.00
2018-05-06T06:25:38.379Z,45.48
2018-05-06T06:28:05.956Z,43.58
2018-05-06T06:30:33.511Z,44.65
2018-05-06T06:33:01.046Z,44.92
2018-05-06T06:35:28.796Z,44.25
2018-05-06T06:37:56.347Z,44.08
2018-05-06T06:40:23.888Z,44.72
2018-05-06T06:42:51.623Z,47.57
2018-05-06T06:45:19.172Z,46.78
2018-05-06T06:47:46.738Z,46.77
2018-05-06T06:50:14.400Z,47.68
2018-05-06T06:52:41.952Z,48.01
2018-05-06T06:55:09.508Z,49.12
2018-05-06T06:57:37.102Z,49.21
2018-05-06T07:00:04.700Z,50.20
2018-05-06T07:02:32.252Z,50.33
2018-05-06T07:04:59.840Z,50.65
2018-05-06T07:07:27.386Z,50.79
2018-05-06T07:09:54.936Z,51.51
2018-05-06T07:12:22.526Z,51.75
2018-05-06T07:14:50.068Z,51.73
2018-05-06T07:17:17.612Z,51.72
2018-05-06T07:19:45.195Z,52.42
2018-05-06T07:22:12.731Z,52.85
2018-05-06T07:24:40.312Z,52.91
2018-05-06T07:27:08.661Z,52.85
2018-05-06T07:29:36.220Z,52.24
2018-05-06T07:32:03.776Z,53.74
2018-05-06T07:34:31.342Z,52.88
2018-05-06T07:36:58.884Z,52.26
2018-05-06T07:39:26.430Z,51.47
2018-05-06T07:41:54.004Z,51.09
2018-05-06T07:44:21.552Z,50.91
2018-05-06T07:46:49.101Z,50.56
2018-05-06T07:49:16.659Z,49.96
2018-05-06T07:51:44.200Z,48.70
2018-05-06T07:54:11.760Z,49.78
2018-05-06T07:56:39.519Z,49.53
2018-05-06T07:59:07.080Z,50.03
2018-05-06T08:01:34.632Z,49.20
2018-05-06T08:04:02.205Z,48.42
2018-05-06T08:06:29.758Z,47.84
2018-05-06T08:08:57.308Z,48.45
2018-05-06T08:11:24.882Z,49.30
2018-05-06T08:13:52.424Z,48.54
2018-05-06T08:16:19.986Z,47.90
2018-05-06T08:18:48.015Z,46.97
2018-05-06T08:21:15.585Z,47.28
2018-05-06T08:23:43.135Z,47.77
2018-05-06T08:26:10.711Z,48.12
2018-05-06T08:28:38.286Z,47.85
2018-05-06T08:31:05.918Z,46.27
2018-05-06T08:33:33.471Z,46.91
2018-05-06T08:36:01.008Z,46.88
2018-05-06T08:38:28.590Z,46.08
2018-05-06T08:40:56.187Z,45.52
2018-05-06T08:43:23.745Z,45.13
2018-05-06T08:45:51.348Z,44.93
2018-05-06T08:48:18.909Z,43.21
2018-05-06T08:50:46.510Z,43.93
2018-05-06T08:53:14.091Z,41.26
2018-05-06T08:55:41.842Z,42.75
2018-05-06T08:58:09.409Z,42.33
2018-05-06T09:00:37.003Z,41.73
2018-05-06T09:03:04.595Z,44.83
2018-05-06T09:05:32.141Z,43.20
2018-05-06T09:07:59.690Z,43.27
2018-05-06T09:10:27.432Z,40.94
2018-05-06T09:12:55.039Z,42.31
2018-05-06T09:15:22.635Z,40.92
2018-05-06T09:17:50.184Z,40.94
2018-05-06T09:20:17.742Z,40.24
2018-05-06T09:22:45.334Z,41.47
2018-05-06T09:25:12.896Z,42.20
2018-05-06T09:27:40.458Z,40.90
2018-05-06T09:30:08.044Z,41.93
2018-05-06T09:32:35.608Z,40.31
2018-05-06T09:35:03.181Z,38.79
2018-05-06T09:37:30.914Z,38.23
2018-05-06T09:39:58.489Z,38.76
2018-05-06T09:42:26.039Z,40.66
2018-05-06T09:44:53.659Z,40.70
2018-05-06T09:47:21.213Z,41.34
2018-05-06T09:49:48.765Z,42.59
2018-05-06T09:52:16.623Z,41.67
2018-05-06T09:54:44.177Z,42.06
2018-05-06T09:57:12.278Z,42.46
2018-05-06T09:59:40.004Z,42.93
2018-05-06T10:02:07.577Z,44.07
2018-05-06T10:04:35.137Z,41.83
2018-05-06T10:07:02.874Z,44.00
2018-05-06T10:09:30.452Z,43.25
2018-05-06T10:11:58.010Z,43.17
2018-05-06T10:14:25.694Z,42.28
2018-05-06T10:16:53.248Z,42.62
2018-05-06T10:19:20.803Z,43.19
2018-05-06T10:21:48.403Z,42.40
2018-05-06T10:24:15.953Z,43.06
2018-05-06T10:26:43.526Z,42.84
2018-05-06T10:29:11.564Z,44.04
2018-05-06T10:31:39.114Z,44.61
2018-05-06T10:34:06.681Z,44.02
2018-05-06T10:36:34.591Z,43.44
2018-05-06T10:39:02.145Z,43.29
2018-05-06T10:41:29.694Z,41.60
2018-05-06T10:43:57.422Z,40.57
2018-05-06T10:46:24.901Z,42.74
2018-05-06T10:48:52.478Z,43.25
2018-05-06T10:51:20.285Z,42.82
2018-05-06T10:53:47.845Z,41.25
2018-05-06T10:56:15.395Z,40.06
2018-05-06T10:58:43.136Z,39.00
2018-05-06T11:01:10.704Z,41.12
2018-05-06T11:03:38.253Z,42.19
2018-05-06T11:06:06.103Z,42.08
2018-05-06T11:08:33.682Z,43.17
2018-05-06T11:11:01.254Z,42.27
2018-05-06T11:13:29.191Z,41.92
2018-05-06T11:15:56.754Z,43.18
2018-05-06T11:18:24.309Z,43.81
2018-05-06T11:20:52.017Z,43.75
2018-05-06T11:23:19.603Z,43.27
2018-05-06T11:25:47.153Z,43.32
2018-05-06T11:28:14.758Z,44.01
2018-05-06T11:30:42.334Z,45.38
2018-05-06T11:33:09.909Z,45.26
2018-05-06T11:35:37.994Z,45.15
2018-05-06T11:38:05.544Z,44.98
2018-05-06T11:40:33.098Z,45.83
2018-05-06T11:43:00.843Z,43.44
2018-05-06T11:45:28.391Z,42.60
2018-05-06T11:47:55.950Z,43.38
2018-05-06T11:50:23.690Z,42.74
2018-05-06T11:52:51.248Z,41.30
2018-05-06T11:55:18.803Z,41.45
2018-05-06T11:57:46.433Z,42.80
2018-05-06T12:00:13.990Z,46.74
2018-05-06T12:02:41.540Z,48.71
2018-05-06T12:05:09.119Z,48.25
2018-05-06T12:07:36.713Z,49.38
2018-05-06T12:10:04.315Z,48.33
2018-05-06T12:12:31.993Z,47.50
2018-05-06T12:14:59.551Z,47.04
2018-05-06T12:17:27.120Z,48.01
2018-05-06T12:19:54.693Z,47.50
2018-05-06T12:22:22.284Z,47.21
2018-05-06T12:24:49.850Z,46.89
2018-05-06T12:27:17.433Z,46.74
2018-05-06T12:29:44.997Z,46.39
2018-05-06T12:32:12.554Z,45.43
2018-05-06T12:34:40.281Z,45.17
2018-05-06T12:37:07.881Z,45.73
2018-05-06T12:39:35.451Z,46.01
2018-05-06T12:42:03.090Z,43.41
2018-05-06T12:44:30.740Z,44.09
2018-05-06T12:46:58.298Z,43.08
2018-05-06T12:49:25.910Z,42.71
2018-05-06T12:51:53.509Z,42.70
2018-05-06T12:54:21.065Z,45.00
2018-05-06T12:56:48.646Z,44.42
2018-05-06T12:59:16.195Z,44.53
2018-05-06T13:01:43.745Z,44.48
2018-05-06T13:04:11.676Z,42.47
2018-05-06T13:06:39.237Z,43.40
2018-05-06T13:09:06.867Z,41.81
2018-05-06T13:11:34.461Z,43.19
2018-05-06T13:14:02.014Z,43.25
2018-05-06T13:16:29.570Z,44.33
2018-05-06T13:18:57.301Z,42.51
2018-05-06T13:21:24.859Z,38.31
2018-05-06T13:23:52.417Z,37.52
2018-05-06T13:26:20.162Z,38.22
2018-05-06T13:28:47.750Z,38.49
2018-05-06T13:31:15.353Z,39.40
2018-05-06T13:33:42.960Z,39.18
2018-05-06T13:36:10.513Z,38.83
2018-05-06T13:38:38.122Z,38.99
2018-05-06T13:41:05.842Z,40.42
2018-05-06T13:43:33.440Z,38.62
2018-05-06T13:46:00.988Z,39.54
2018-05-06T13:48:28.698Z,37.70
2018-05-06T13:50:56.286Z,39.36
2018-05-06T13:53:23.847Z,37.86
2018-05-06T13:55:51.689Z,38.90
2018-05-06T13:58:19.241Z,42.04
2018-05-06T14:00:46.793Z,43.56
2018-05-06T14:03:14.551Z,42.95
2018-05-06T14:05:42.088Z,41.82
2018-05-06T14:08:09.632Z,43.01
2018-05-06T14:10:37.291Z,41.92
2018-05-06T14:13:04.839Z,42.47
2018-05-06T14:15:32.379Z,41.25
2018-05-06T14:17:59.920Z,41.58
2018-05-06T14:20:27.485Z,41.66
2018-05-06T14:22:55.095Z,42.79
2018-05-06T14:25:22.651Z,43.12
2018-05-06T14:27:50.199Z,42.60
2018-05-06T14:30:17.923Z,43.42
2018-05-06T14:32:45.484Z,42.48
2018-05-06T14:35:13.045Z,43.69
2018-05-06T14:37:40.657Z,41.70
2018-05-06T14:40:08.204Z,41.80
2018-05-06T14:42:35.737Z,43.44
2018-05-06T14:45:03.506Z,42.63
2018-05-06T14:47:42.676Z,42.97
2018-05-06T14:50:10.805Z,42.99
2018-05-06T14:52:38.344Z,42.61
2018-05-06T14:55:05.977Z,42.90
2018-05-06T14:57:33.669Z,43.50
2018-05-06T15:00:01.244Z,43.66
2018-05-06T15:02:28.784Z,43.65
2018-05-06T15:04:56.511Z,44.38
2018-05-06T15:07:24.063Z,43.70
2018-05-06T15:09:51.603Z,44.08
2018-05-06T15:12:19.300Z,43.85
2018-05-06T15:14:46.839Z,44.00
2018-05-06T15:17:14.401Z,44.22
2018-05-06T15:19:41.982Z,44.07
2018-05-06T15:22:09.535Z,43.19
2018-05-06T15:24:37.080Z,44.39
2018-05-06T15:27:04.821Z,44.56
2018-05-06T15:29:32.409Z,44.45
2018-05-06T15:31:59.959Z,44.93
2018-05-06T15:34:27.543Z,44.37
2018-05-06T15:36:55.095Z,44.65
2018-05-06T15:39:22.636Z,45.29
2018-05-06T15:41:50.256Z,45.21
2018-05-06T15:44:17.811Z,45.98
2018-05-06T15:46:45.372Z,46.31
2018-05-06T15:49:13.179Z,46.64
2018-05-06T15:51:40.789Z,45.89
2018-05-06T15:54:08.457Z,44.80
2018-05-06T15:56:36.166Z,41.54
2018-05-06T15:59:03.748Z,42.06
2018-05-06T16:01:31.332Z,42.85
2018-05-06T16:04:10.693Z,43.28
2018-05-06T16:06:38.292Z,44.81
2018-05-06T16:09:05.875Z,47.62
2018-05-06T16:11:33.604Z,50.34
2018-05-06T16:14:01.170Z,50.94
2018-05-06T16:16:28.732Z,51.88
2018-05-06T16:18:56.373Z,51.77
2018-05-06T16:21:24.048Z,52.54
2018-05-06T16:23:51.602Z,53.39
2018-05-06T16:26:19.327Z,54.27
2018-05-06T16:28:46.888Z,56.35
2018-05-06T16:31:14.490Z,57.10
2018-05-06T16:33:42.354Z,57.88
2018-05-06T16:36:09.922Z,59.76
2018-05-06T16:38:37.499Z,59.33
2018-05-06T16:41:05.128Z,60.54
2018-05-06T16:43:32.711Z,59.90
2018-05-06T16:46:00.275Z,59.78
2018-05-06T16:48:27.934Z,60.91
2018-05-06T16:50:55.487Z,60.21
2018-05-06T16:53:23.038Z,60.58
2018-05-06T16:55:51.417Z,60.25
2018-05-06T16:58:18.963Z,60.08
2018-05-06T17:00:46.508Z,59.75
2018-05-06T17:03:14.102Z,59.46
2018-05-06T17:05:41.689Z,59.52
2018-05-06T17:08:09.296Z,59.45
2018-05-06T17:10:36.893Z,60.12
2018-05-06T17:13:05.350Z,57.30
2018-05-06T17:15:32.882Z,55.59
2018-05-06T17:18:00.444Z,55.08
2018-05-06T17:20:28.010Z,58.94
2018-05-06T17:22:55.603Z,68.48
2018-05-06T17:25:23.167Z,71.31
2018-05-06T17:27:50.741Z,74.83
2018-05-06T17:30:18.521Z,78.36
2018-05-06T17:32:46.088Z,79.89
2018-05-06T17:35:13.727Z,81.88
2018-05-06T17:37:41.340Z,81.59
2018-05-06T17:40:08.982Z,82.66
2018-05-06T17:42:36.569Z,84.08
2018-05-06T17:45:04.378Z,84.29
2018-05-06T17:47:31.962Z,84.56
2018-05-06T17:49:59.557Z,85.01
2018-05-06T17:52:27.398Z,84.98
2018-05-06T17:54:54.993Z,84.32
2018-05-06T17:57:22.544Z,81.63
2018-05-06T17:59:50.296Z,82.98
2018-05-06T18:02:17.877Z,78.96
2018-05-06T18:04:45.434Z,80.32
2018-05-06T18:07:13.026Z,79.06
2018-05-06T18:09:40.584Z,78.40
2018-05-06T18:12:08.228Z,79.16
2018-05-06T18:14:35.837Z,79.20
2018-05-06T18:17:03.389Z,79.13
2018-05-06T18:19:30.988Z,78.35
2018-05-06T18:21:58.650Z,78.33
2018-05-06T18:24:26.201Z,78.34
2018-05-06T18:26:53.756Z,77.36
2018-05-06T18:29:21.486Z,79.06
2018-05-06T18:31:49.072Z,77.15
2018-05-06T18:34:16.631Z,79.07
2018-05-06T18:36:44.326Z,80.26
2018-05-06T18:39:11.888Z,81.21
2018-05-06T18:41:39.458Z,80.69
2018-05-06T18:44:07.182Z,80.43
2018-05-06T18:46:34.772Z,80.20
2018-05-06T18:49:02.344Z,79.49
2018-05-06T18:51:30.106Z,79.44
2018-05-06T18:53:57.687Z,79.43
2018-05-06T18:56:25.245Z,79.37
2018-05-06T18:58:52.870Z,78.32
2018-05-06T19:01:20.431Z,76.85
2018-05-06T19:03:48.001Z,78.09
2018-05-06T19:06:15.762Z,77.28
2018-05-06T19:08:43.302Z,77.32
2018-05-06T19:11:10.881Z,77.80
2018-05-06T19:13:38.555Z,76.87
2018-05-06T19:16:06.119Z,77.53
2018-05-06T19:18:33.707Z,77.71
2018-05-06T19:21:01.313Z,76.61
2018-05-06T19:23:28.909Z,77.43
2018-05-06T19:25:56.518Z,77.55
2018-05-06T19:28:24.121Z,77.77
2018-05-06T19:30:51.761Z,77.13
2018-05-06T19:33:19.325Z,77.47
2018-05-06T19:35:46.971Z,77.51
2018-05-06T19:38:14.554Z,77.29
2018-05-06T19:40:42.111Z,76.75
2018-05-06T19:43:09.680Z,76.54
2018-05-06T19:45:37.233Z,76.74
2018-05-06T19:48:04.814Z,76.76
2018-05-06T19:50:32.643Z,76.39
2018-05-06T19:53:00.164Z,76.59
2018-05-06T19:55:27.722Z,75.98
2018-05-06T19:57:55.646Z,76.34
2018-05-06T20:00:23.203Z,76.45
2018-05-06T20:02:50.738Z,77.46
2018-05-06T20:05:18.329Z,77.07
2018-05-06T20:07:45.891Z,76.82
2018-05-06T20:10:13.465Z,76.87
2018-05-06T20:12:41.469Z,76.47
2018-05-06T20:15:09.022Z,76.72
2018-05-06T20:17:36.570Z,76.49
2018-05-06T20:20:04.725Z,76.84
2018-05-06T20:22:32.276Z,77.98
2018-05-06T20:24:59.826Z,78.70
2018-05-06T20:27:27.405Z,79.45
2018-05-06T20:29:54.950Z,79.93
2018-05-06T20:32:22.514Z,80.97
2018-05-06T20:34:50.113Z,81.71
2018-05-06T20:37:17.671Z,81.66
2018-05-06T20:39:45.231Z,81.42
2018-05-06T20:42:12.972Z,81.59
2018-05-06T20:44:40.547Z,81.24
2018-05-06T20:47:08.110Z,81.41
2018-05-06T20:49:35.784Z,82.27
2018-05-06T20:52:03.405Z,82.14
2018-05-06T20:54:30.976Z,82.19
2018-05-06T20:56:58.571Z,82.46
2018-05-06T20:59:26.143Z,82.53
2018-05-06T21:01:53.711Z,82.18
2018-05-06T21:04:21.307Z,82.22
2018-05-06T21:06:48.871Z,83.12
2018-05-06T21:09:16.431Z,83.37
2018-05-06T21:11:44.106Z,82.44
2018-05-06T21:14:11.655Z,82.05
2018-05-06T21:16:39.208Z,81.98
2018-05-06T21:19:06.830Z,81.58
2018-05-06T21:21:34.330Z,81.72
2018-05-06T21:24:02.039Z,82.45
2018-05-06T21:26:29.596Z,82.70
2018-05-06T21:28:57.161Z,82.82
2018-05-06T21:31:24.904Z,82.94
2018-05-06T21:33:53.852Z,83.04
2018-05-06T21:36:21.408Z,82.96
2018-05-06T21:38:48.998Z,83.11
2018-05-06T21:41:16.536Z,83.72
2018-05-06T21:43:44.096Z,83.55
2018-05-06T21:46:11.690Z,83.52
2018-05-06T21:48:40.098Z,83.60
2018-05-06T21:51:07.645Z,83.76
2018-05-06T21:53:35.229Z,83.76
2018-05-06T21:56:02.781Z,84.01
2018-05-06T21:58:30.324Z,83.99
2018-05-06T22:00:57.940Z,83.92
2018-05-06T22:03:26.293Z,83.83
2018-05-06T22:05:53.836Z,83.78
2018-05-06T22:08:21.430Z,83.76
2018-05-06T22:10:48.979Z,83.92
2018-05-06T22:13:16.544Z,83.86
2018-05-06T22:15:44.128Z,83.46
2018-05-06T22:18:11.704Z,83.31
2018-05-06T22:20:39.268Z,83.30
2018-05-06T22:23:06.943Z,83.38
2018-05-06T22:25:34.427Z,83.43
2018-05-06T22:28:01.977Z,83.09
2018-05-06T22:30:29.713Z,83.09
2018-05-06T22:32:57.275Z,83.06
2018-05-06T22:35:24.828Z,83.02
2018-05-06T22:37:52.413Z,82.79
2018-05-06T22:40:19.980Z,82.79
2018-05-06T22:42:47.547Z,82.66
2018-05-06T22:45:15.121Z,82.39
2018-05-06T22:47:42.666Z,82.41
2018-05-06T22:50:10.214Z,82.54
2018-05-06T22:52:37.787Z,82.60
2018-05-06T22:55:05.343Z,81.44
2018-05-06T22:57:32.919Z,81.92
2018-05-06T23:00:00.678Z,82.60
2018-05-06T23:02:28.239Z,82.89
2018-05-06T23:04:55.804Z,82.85
2018-05-06T23:07:23.524Z,82.65
2018-05-06T23:09:51.082Z,81.94
2018-05-06T23:12:18.611Z,81.82
2018-05-06T23:14:46.279Z,81.38
2018-05-06T23:17:13.806Z,81.25
2018-05-06T23:19:41.340Z,81.10
2018-05-06T23:22:08.963Z,80.94
2018-05-06T23:24:36.517Z,80.95
2018-05-06T23:27:04.055Z,81.11
2018-05-06T23:29:31.620Z,81.46
2018-05-06T23:31:59.162Z,81.65
2018-05-06T23:34:26.708Z,81.19
2018-05-06T23:36:54.604Z,81.20
2018-05-06T23:39:22.150Z,81.71
2018-05-06T23:41:49.679Z,82.16
2018-05-06T23:44:17.259Z,82.47
2018-05-06T23:46:44.820Z,82.65
2018-05-06T23:49:12.368Z,82.92
2018-05-06T23:51:40.277Z,83.31
2018-05-06T23:54:07.815Z,83.42
2018-05-06T23:56:35.361Z,83.40
2018-05-06T23:59:02.945Z,83.20
